PWSweather.com
Personal Weather Stations
Station Observations
KWABLAIN13
Ptl Weather, Blaine, WA

Ptl WeatherBlaine, WA

Lat: 48.997393, Lon: -122.748614

Elevation: 57

Station Type: Davis Advantage Pro 2

http://www.ptlnet.net

Latest ConditionsUpdated 4:10:03 PM PDT Tuesday, Mar 26, 2019
Currently Today's Max Today's Min Today's Average
Temperature 57.1°F13.9°C 57.1°F13.9°C 42.4°F5.8°C 48.1°F8.9°C
Dew Point 41.6°F5.3°C 45.8°F7.7°C 40.0°F4.4°C 43.6°F6.4°C
Winds 5.0 mph SW8.0 kmh SW 9.0 mph -14.5 kmh - - 4.3 mph 6.9 kmh
Wind Gusts 5.0 mph8.0 kmh 13.0 mph20.9 kmh - -
Humidity 56% 95% 55% 86%
Pressure 30.06 in1017.9 mb 30.08 in1018.6 mb 29.92 in1013.2 mb -
Hour Temp Dew Point Humidity Winds Wind Gusts Pressure Precip Precip Rate Daily Precip Total
04:10 PM 57.1°F13.9°C 41.6°F5.3°C 56% 5.0 mph SW8.0 kmh SW 5.0 mph8.0 kmh 30.06 in1017.9 mb 0.00 in0.0 mm 0.00 in0.0 mm 0.22 in5.6 mm
04:04 PM 57.0°F13.9°C 41.0°F5.0°C 55% 2.0 mph SSW3.2 kmh SSW 7.0 mph11.3 kmh 30.06 in1017.9 mb 0.00 in0.0 mm 0.00 in0.0 mm 0.22 in5.6 mm
03:50 PM 56.8°F13.8°C 41.3°F5.2°C 56% 3.0 mph SW4.8 kmh SW 3.0 mph4.8 kmh 30.06 in1017.9 mb 0.00 in0.0 mm 0.00 in0.0 mm 0.22 in5.6 mm
03:45 PM 56.8°F13.8°C 41.8°F5.4°C 57% 7.0 mph SSW11.3 kmh SSW 8.0 mph12.9 kmh 30.06 in1017.9 mb 0.00 in0.0 mm 0.00 in0.0 mm 0.22 in5.6 mm
03:29 PM 56.0°F13.3°C 41.0°F5.0°C 57% 4.0 mph SW6.4 kmh SW 10.0 mph16.1 kmh 30.06 in1017.9 mb 0.00 in0.0 mm 0.00 in0.0 mm 0.22 in5.6 mm
03:25 PM 55.9°F13.3°C 40.0°F4.4°C 55% 7.0 mph SW11.3 kmh SW 10.0 mph16.1 kmh 30.06 in1017.9 mb 0.00 in0.0 mm 0.00 in0.0 mm 0.22 in5.6 mm
03:10 PM 56.7°F13.7°C 41.2°F5.1°C 56% 8.0 mph SSW12.9 kmh SSW 11.0 mph17.7 kmh 30.06 in1017.9 mb 0.00 in0.0 mm 0.00 in0.0 mm 0.22 in5.6 mm
03:05 PM 56.6°F13.7°C 42.0°F5.6°C 58% 7.0 mph SW11.3 kmh SW 11.0 mph17.7 kmh 30.06 in1017.9 mb 0.00 in0.0 mm 0.00 in0.0 mm 0.22 in5.6 mm
02:50 PM 56.8°F13.8°C 42.6°F5.9°C 59% 9.0 mph SW14.5 kmh SW 11.0 mph17.7 kmh 30.07 in1018.3 mb 0.00 in0.0 mm 0.00 in0.0 mm 0.22 in5.6 mm
02:45 PM 56.5°F13.6°C 41.9°F5.5°C 58% 7.0 mph SSW11.3 kmh SSW 10.0 mph16.1 kmh 30.07 in1018.3 mb 0.00 in0.0 mm 0.00 in0.0 mm 0.22 in5.6 mm
02:29 PM 56.5°F13.6°C 44.1°F6.7°C 63% 4.0 mph SSW6.4 kmh SSW 11.0 mph17.7 kmh 30.07 in1018.3 mb 0.00 in0.0 mm 0.00 in0.0 mm 0.22 in5.6 mm
02:25 PM 56.3°F13.5°C 44.7°F7.1°C 65% 5.0 mph SSW8.0 kmh SSW 11.0 mph17.7 kmh 30.07 in1018.3 mb 0.00 in0.0 mm 0.00 in0.0 mm 0.22 in5.6 mm
02:10 PM 55.8°F13.2°C 44.2°F6.8°C 65% 7.0 mph S11.3 kmh S 7.0 mph11.3 kmh 30.07 in1018.3 mb 0.00 in0.0 mm 0.00 in0.0 mm 0.22 in5.6 mm
02:05 PM 55.5°F13.1°C 45.1°F7.3°C 68% 6.0 mph S9.7 kmh S 10.0 mph16.1 kmh 30.08 in1018.6 mb 0.00 in0.0 mm 0.00 in0.0 mm 0.22 in5.6 mm
01:50 PM 55.3°F12.9°C 44.5°F6.9°C 67% 5.0 mph S8.0 kmh S 5.0 mph8.0 kmh 30.08 in1018.6 mb 0.00 in0.0 mm 0.00 in0.0 mm 0.22 in5.6 mm
01:45 PM 55.0°F12.8°C 44.7°F7.1°C 68% 4.0 mph SW6.4 kmh SW 10.0 mph16.1 kmh 30.08 in1018.6 mb 0.00 in0.0 mm 0.00 in0.0 mm 0.22 in5.6 mm
01:30 PM 54.9°F12.7°C 45.7°F7.6°C 71% 6.0 mph SSW9.7 kmh SSW 6.0 mph9.7 kmh 30.08 in1018.6 mb 0.00 in0.0 mm 0.00 in0.0 mm 0.22 in5.6 mm
01:25 PM 54.7°F12.6°C 45.5°F7.5°C 71% 5.0 mph SW8.0 kmh SW 10.0 mph16.1 kmh 30.08 in1018.6 mb 0.00 in0.0 mm 0.00 in0.0 mm 0.22 in5.6 mm
01:10 PM 54.0°F12.2°C 45.6°F7.6°C 73% 5.0 mph SW8.0 kmh SW 7.0 mph11.3 kmh 30.08 in1018.6 mb 0.00 in0.0 mm 0.00 in0.0 mm 0.22 in5.6 mm
01:05 PM 54.0°F12.2°C 45.2°F7.3°C 72% 6.0 mph S9.7 kmh S 13.0 mph20.9 kmh 30.08 in1018.6 mb 0.00 in0.0 mm 0.00 in0.0 mm 0.22 in5.6 mm
12:50 PM 53.2°F11.8°C 44.4°F6.9°C 72% 8.0 mph SSW12.9 kmh SSW 8.0 mph12.9 kmh 30.08 in1018.6 mb 0.00 in0.0 mm 0.00 in0.0 mm 0.22 in5.6 mm
12:45 PM 52.8°F11.6°C 44.8°F7.1°C 74% 8.0 mph SSE12.9 kmh SSE 11.0 mph17.7 kmh 30.08 in1018.6 mb 0.00 in0.0 mm 0.00 in0.0 mm 0.22 in5.6 mm
12:30 PM 52.4°F11.3°C 44.7°F7.1°C 75% 7.0 mph S11.3 kmh S 8.0 mph12.9 kmh 30.07 in1018.3 mb 0.00 in0.0 mm 0.00 in0.0 mm 0.22 in5.6 mm
12:25 PM 52.0°F11.1°C 45.0°F7.2°C 77% 3.0 mph SE4.8 kmh SE 12.0 mph19.3 kmh 30.08 in1018.6 mb 0.00 in0.0 mm 0.00 in0.0 mm 0.22 in5.6 mm
12:10 PM 51.1°F10.6°C 44.8°F7.1°C 79% 7.0 mph ESE11.3 kmh ESE 7.0 mph11.3 kmh 30.07 in1018.3 mb 0.00 in0.0 mm 0.00 in0.0 mm 0.22 in5.6 mm
12:05 PM 51.2°F10.7°C 44.9°F7.2°C 79% 4.0 mph SSW6.4 kmh SSW 12.0 mph19.3 kmh 30.08 in1018.6 mb 0.00 in0.0 mm 0.00 in0.0 mm 0.22 in5.6 mm
11:50 AM 50.8°F10.4°C 45.2°F7.3°C 81% 4.0 mph SE6.4 kmh SE 8.0 mph12.9 kmh 30.08 in1018.6 mb 0.00 in0.0 mm 0.00 in0.0 mm 0.22 in5.6 mm
11:45 AM 50.7°F10.4°C 45.4°F7.4°C 82% 8.0 mph SW12.9 kmh SW 10.0 mph16.1 kmh 30.08 in1018.6 mb 0.00 in0.0 mm 0.00 in0.0 mm 0.22 in5.6 mm
11:30 AM 50.0°F10.0°C 45.1°F7.3°C 83% 3.0 mph SSE4.8 kmh SSE 8.0 mph12.9 kmh 30.08 in1018.6 mb 0.00 in0.0 mm 0.00 in0.0 mm 0.22 in5.6 mm
11:24 AM 49.6°F9.8°C 45.0°F7.2°C 84% 6.0 mph SSW9.7 kmh SSW 8.0 mph12.9 kmh 30.08 in1018.6 mb 0.00 in0.0 mm 0.00 in0.0 mm 0.22 in5.6 mm
11:10 AM 49.0°F9.4°C 45.0°F7.2°C 86% 4.0 mph S6.4 kmh S 8.0 mph12.9 kmh 30.08 in1018.6 mb 0.00 in0.0 mm 0.00 in0.0 mm 0.22 in5.6 mm
11:05 AM 48.8°F9.3°C 45.1°F7.3°C 87% 5.0 mph S8.0 kmh S 6.0 mph9.7 kmh 30.08 in1018.6 mb 0.00 in0.0 mm 0.00 in0.0 mm 0.22 in5.6 mm
10:50 AM 48.4°F9.1°C 44.7°F7.1°C 87% 5.0 mph SE8.0 kmh SE 8.0 mph12.9 kmh 30.07 in1018.3 mb 0.00 in0.0 mm 0.00 in0.0 mm 0.22 in5.6 mm
10:45 AM 48.4°F9.1°C 44.7°F7.1°C 87% 5.0 mph S8.0 kmh S 8.0 mph12.9 kmh 30.07 in1018.3 mb 0.00 in0.0 mm 0.00 in0.0 mm 0.22 in5.6 mm
10:29 AM 47.9°F8.8°C 44.5°F6.9°C 88% 6.0 mph SE9.7 kmh SE 8.0 mph12.9 kmh 30.07 in1018.3 mb 0.00 in0.0 mm 0.00 in0.0 mm 0.22 in5.6 mm
10:25 AM 48.0°F8.9°C 44.9°F7.2°C 89% 4.0 mph SSW6.4 kmh SSW 8.0 mph12.9 kmh 30.07 in1018.3 mb 0.00 in0.0 mm 0.00 in0.0 mm 0.22 in5.6 mm
10:10 AM 47.7°F8.7°C 45.8°F7.7°C 93% 3.0 mph S4.8 kmh S 5.0 mph8.0 kmh 30.07 in1018.3 mb 0.00 in0.0 mm 0.00 in0.0 mm 0.22 in5.6 mm
10:05 AM 47.2°F8.4°C 45.3°F7.4°C 93% 3.0 mph S4.8 kmh S 5.0 mph8.0 kmh 30.06 in1017.9 mb 0.00 in0.0 mm 0.00 in0.0 mm 0.22 in5.6 mm
09:49 AM 46.0°F7.8°C 44.7°F7.1°C 95% 3.0 mph S4.8 kmh S 7.0 mph11.3 kmh 30.06 in1017.9 mb 0.01 in0.3 mm 0.00 in0.0 mm 0.22 in5.6 mm
09:45 AM 45.6°F7.6°C 44.3°F6.8°C 95% 2.0 mph S3.2 kmh S 7.0 mph11.3 kmh 30.06 in1017.9 mb 0.01 in0.3 mm 0.00 in0.0 mm 0.22 in5.6 mm
09:30 AM 44.5°F6.9°C 43.2°F6.2°C 95% 2.0 mph S3.2 kmh S 8.0 mph12.9 kmh 30.06 in1017.9 mb 0.01 in0.3 mm 0.00 in0.0 mm 0.22 in5.6 mm
09:25 AM 44.2°F6.8°C 42.6°F5.9°C 94% 5.0 mph SE8.0 kmh SE 8.0 mph12.9 kmh 30.06 in1017.9 mb 0.01 in0.3 mm 0.00 in0.0 mm 0.22 in5.6 mm
09:10 AM 43.5°F6.4°C 41.9°F5.5°C 94% 2.0 mph S3.2 kmh S 9.0 mph14.5 kmh 30.05 in1017.6 mb 0.01 in0.3 mm 0.00 in0.0 mm 0.22 in5.6 mm
09:05 AM 43.4°F6.3°C 41.8°F5.4°C 94% 5.0 mph S8.0 kmh S 9.0 mph14.5 kmh 30.05 in1017.6 mb 0.01 in0.3 mm 0.01 in0.3 mm 0.22 in5.6 mm
08:50 AM 43.0°F6.1°C 41.4°F5.2°C 94% 5.0 mph SE8.0 kmh SE 7.0 mph11.3 kmh 30.05 in1017.6 mb 0.00 in0.0 mm 0.00 in0.0 mm 0.21 in5.3 mm
08:45 AM 42.8°F6.0°C 41.2°F5.1°C 94% 4.0 mph S6.4 kmh S 7.0 mph11.3 kmh 30.04 in1017.3 mb 0.00 in0.0 mm 0.00 in0.0 mm 0.21 in5.3 mm
08:30 AM 42.6°F5.9°C 41.0°F5.0°C 94% 4.0 mph SE6.4 kmh SE 9.0 mph14.5 kmh 30.04 in1017.3 mb 0.00 in0.0 mm 0.00 in0.0 mm 0.21 in5.3 mm
08:25 AM 42.5°F5.8°C 40.9°F4.9°C 94% 5.0 mph SE8.0 kmh SE 9.0 mph14.5 kmh 30.04 in1017.3 mb 0.00 in0.0 mm 0.00 in0.0 mm 0.21 in5.3 mm
08:10 AM 42.4°F5.8°C 40.8°F4.9°C 94% 3.0 mph SE4.8 kmh SE 10.0 mph16.1 kmh 30.03 in1016.9 mb 0.00 in0.0 mm 0.00 in0.0 mm 0.21 in5.3 mm
08:05 AM 42.4°F5.8°C 40.8°F4.9°C 94% 1.0 mph SE1.6 kmh SE 10.0 mph16.1 kmh 30.03 in1016.9 mb 0.00 in0.0 mm 0.00 in0.0 mm 0.21 in5.3 mm
07:50 AM 42.5°F5.8°C 40.9°F4.9°C 94% 4.0 mph SE6.4 kmh SE 10.0 mph16.1 kmh 30.02 in1016.6 mb 0.00 in0.0 mm 0.00 in0.0 mm 0.21 in5.3 mm
07:45 AM 42.7°F5.9°C 41.1°F5.1°C 94% 5.0 mph SE8.0 kmh SE 10.0 mph16.1 kmh 30.02 in1016.6 mb 0.00 in0.0 mm 0.00 in0.0 mm 0.21 in5.3 mm
07:29 AM 43.0°F6.1°C 41.4°F5.2°C 94% 8.0 mph SSE12.9 kmh SSE 10.0 mph16.1 kmh 30.01 in1016.3 mb 0.01 in0.3 mm 0.00 in0.0 mm 0.21 in5.3 mm
07:25 AM 43.2°F6.2°C 41.6°F5.3°C 94% 4.0 mph SE6.4 kmh SE 10.0 mph16.1 kmh 30.01 in1016.3 mb 0.01 in0.3 mm 0.00 in0.0 mm 0.21 in5.3 mm
07:10 AM 43.7°F6.5°C 42.4°F5.8°C 95% 5.0 mph SE8.0 kmh SE 10.0 mph16.1 kmh 30.01 in1016.3 mb 0.18 in4.6 mm 0.00 in0.0 mm 0.21 in5.3 mm
07:05 AM 45.3°F7.4°C 43.1°F6.2°C 92% 5.0 mph SE8.0 kmh SE 9.0 mph14.5 kmh 30.01 in1016.3 mb 0.18 in4.6 mm 0.00 in0.0 mm 0.21 in5.3 mm
06:49 AM 45.3°F7.4°C 43.1°F6.2°C 92% 7.0 mph S11.3 kmh S 8.0 mph12.9 kmh 30.01 in1016.3 mb 0.18 in4.6 mm 0.00 in0.0 mm 0.21 in5.3 mm
06:45 AM 45.5°F7.5°C 43.6°F6.4°C 93% Calm Calm 8.0 mph12.9 kmh 30.01 in1016.3 mb 0.18 in4.6 mm 0.00 in0.0 mm 0.21 in5.3 mm
06:30 AM 45.5°F7.5°C 43.6°F6.4°C 93% 2.0 mph S3.2 kmh S 11.0 mph17.7 kmh 30.01 in1016.3 mb 0.18 in4.6 mm 0.12 in3.0 mm 0.21 in5.3 mm
06:25 AM 45.5°F7.5°C 43.6°F6.4°C 93% 6.0 mph S9.7 kmh S 11.0 mph17.7 kmh 30.01 in1016.3 mb 0.17 in4.3 mm 0.04 in1.0 mm 0.20 in5.1 mm
06:10 AM 45.9°F7.7°C 44.0°F6.7°C 93% 4.0 mph SSW6.4 kmh SSW 11.0 mph17.7 kmh 30.00 in1015.9 mb 0.16 in4.1 mm 1.92 in48.8 mm 0.19 in4.8 mm
06:05 AM 45.9°F7.7°C 44.3°F6.8°C 94% 3.0 mph S4.8 kmh S 7.0 mph11.3 kmh 30.00 in1015.9 mb 0.00 in0.0 mm 0.00 in0.0 mm 0.03 in0.8 mm
05:50 AM 45.9°F7.7°C 44.3°F6.8°C 94% 1.0 mph SSE1.6 kmh SSE 7.0 mph11.3 kmh 29.99 in1015.6 mb 0.00 in0.0 mm 0.00 in0.0 mm 0.03 in0.8 mm
05:44 AM 45.9°F7.7°C 44.3°F6.8°C 94% 1.0 mph SE1.6 kmh SE 7.0 mph11.3 kmh 29.99 in1015.6 mb 0.00 in0.0 mm 0.00 in0.0 mm 0.03 in0.8 mm
05:29 AM 44.7°F7.1°C 43.4°F6.3°C 95% 2.0 mph SSE3.2 kmh SSE 7.0 mph11.3 kmh 29.98 in1015.2 mb 0.01 in0.3 mm 0.00 in0.0 mm 0.03 in0.8 mm
05:25 AM 44.7°F7.1°C 43.4°F6.3°C 95% 2.0 mph SSE3.2 kmh SSE 7.0 mph11.3 kmh 29.98 in1015.2 mb 0.01 in0.3 mm 0.00 in0.0 mm 0.03 in0.8 mm
05:10 AM 44.9°F7.2°C 43.6°F6.4°C 95% 4.0 mph SE6.4 kmh SE 4.0 mph6.4 kmh 29.98 in1015.2 mb 0.01 in0.3 mm 0.00 in0.0 mm 0.03 in0.8 mm
05:05 AM 44.9°F7.2°C 43.6°F6.4°C 95% 4.0 mph SE6.4 kmh SE 9.0 mph14.5 kmh 29.98 in1015.2 mb 0.01 in0.3 mm 0.00 in0.0 mm 0.03 in0.8 mm
04:50 AM 45.0°F7.2°C 43.7°F6.5°C 95% 5.0 mph SE8.0 kmh SE 5.0 mph8.0 kmh 29.98 in1015.2 mb 0.01 in0.3 mm 0.00 in0.0 mm 0.03 in0.8 mm
04:45 AM 45.0°F7.2°C 43.7°F6.5°C 95% 4.0 mph SE6.4 kmh SE 6.0 mph9.7 kmh 29.98 in1015.2 mb 0.01 in0.3 mm 0.04 in1.0 mm 0.03 in0.8 mm
04:29 AM 44.9°F7.2°C 43.3°F6.3°C 94% 6.0 mph SE9.7 kmh SE 8.0 mph12.9 kmh 29.98 in1015.2 mb 0.00 in0.0 mm 0.00 in0.0 mm 0.02 in0.5 mm
04:25 AM 44.9°F7.2°C 43.3°F6.3°C 94% 1.0 mph SE1.6 kmh SE 7.0 mph11.3 kmh 29.98 in1015.2 mb 0.00 in0.0 mm 0.00 in0.0 mm 0.02 in0.5 mm
04:10 AM 44.8°F7.1°C 43.2°F6.2°C 94% 5.0 mph SE8.0 kmh SE 7.0 mph11.3 kmh 29.98 in1015.2 mb 0.00 in0.0 mm 0.00 in0.0 mm 0.02 in0.5 mm
04:05 AM 44.8°F7.1°C 43.2°F6.2°C 94% 3.0 mph SE4.8 kmh SE 7.0 mph11.3 kmh 29.98 in1015.2 mb 0.00 in0.0 mm 0.00 in0.0 mm 0.02 in0.5 mm
03:50 AM 44.7°F7.1°C 43.4°F6.3°C 95% 5.0 mph SE8.0 kmh SE 8.0 mph12.9 kmh 29.98 in1015.2 mb 0.01 in0.3 mm 0.00 in0.0 mm 0.02 in0.5 mm
03:44 AM 44.7°F7.1°C 43.4°F6.3°C 95% 5.0 mph SSE8.0 kmh SSE 8.0 mph12.9 kmh 29.98 in1015.2 mb 0.01 in0.3 mm 0.00 in0.0 mm 0.02 in0.5 mm
03:29 AM 44.7°F7.1°C 43.1°F6.2°C 94% 4.0 mph SSE6.4 kmh SSE 8.0 mph12.9 kmh 29.98 in1015.2 mb 0.01 in0.3 mm 0.00 in0.0 mm 0.02 in0.5 mm
03:25 AM 44.7°F7.1°C 43.1°F6.2°C 94% 6.0 mph SSE9.7 kmh SSE 6.0 mph9.7 kmh 29.98 in1015.2 mb 0.01 in0.3 mm 0.00 in0.0 mm 0.02 in0.5 mm
03:10 AM 44.9°F7.2°C 43.3°F6.3°C 94% 5.0 mph SSE8.0 kmh SSE 8.0 mph12.9 kmh 29.97 in1014.9 mb 0.01 in0.3 mm 0.00 in0.0 mm 0.02 in0.5 mm
03:05 AM 45.0°F7.2°C 43.4°F6.3°C 94% 5.0 mph SE8.0 kmh SE 8.0 mph12.9 kmh 29.97 in1014.9 mb 0.01 in0.3 mm 0.00 in0.0 mm 0.02 in0.5 mm
02:49 AM 45.2°F7.3°C 43.6°F6.4°C 94% 5.0 mph SE8.0 kmh SE 5.0 mph8.0 kmh 29.97 in1014.9 mb 0.01 in0.3 mm 0.00 in0.0 mm 0.02 in0.5 mm
02:45 AM 45.3°F7.4°C 43.7°F6.5°C 94% 7.0 mph SE11.3 kmh SE 8.0 mph12.9 kmh 29.97 in1014.9 mb 0.01 in0.3 mm 0.04 in1.0 mm 0.02 in0.5 mm
02:29 AM 45.4°F7.4°C 44.1°F6.7°C 95% 4.0 mph SE6.4 kmh SE 8.0 mph12.9 kmh 29.97 in1014.9 mb 0.00 in0.0 mm 0.00 in0.0 mm 0.01 in0.3 mm
02:25 AM 45.4°F7.4°C 44.1°F6.7°C 95% 3.0 mph SSE4.8 kmh SSE 6.0 mph9.7 kmh 29.96 in1014.6 mb 0.00 in0.0 mm 0.00 in0.0 mm 0.01 in0.3 mm
02:10 AM 45.4°F7.4°C 44.1°F6.7°C 95% 2.0 mph SSE3.2 kmh SSE 9.0 mph14.5 kmh 29.95 in1014.2 mb 0.00 in0.0 mm 0.00 in0.0 mm 0.01 in0.3 mm
02:05 AM 45.4°F7.4°C 44.1°F6.7°C 95% 4.0 mph SSE6.4 kmh SSE 9.0 mph14.5 kmh 29.95 in1014.2 mb 0.00 in0.0 mm 0.00 in0.0 mm 0.01 in0.3 mm
01:50 AM 45.4°F7.4°C 43.8°F6.6°C 94% 5.0 mph SE8.0 kmh SE 5.0 mph8.0 kmh 29.95 in1014.2 mb 0.00 in0.0 mm 0.00 in0.0 mm 0.01 in0.3 mm
01:45 AM 45.4°F7.4°C 43.8°F6.6°C 94% 3.0 mph SE4.8 kmh SE 6.0 mph9.7 kmh 29.95 in1014.2 mb 0.00 in0.0 mm 0.00 in0.0 mm 0.01 in0.3 mm
01:30 AM 45.6°F7.6°C 44.0°F6.7°C 94% 3.0 mph SE4.8 kmh SE 6.0 mph9.7 kmh 29.94 in1013.9 mb 0.01 in0.3 mm 0.00 in0.0 mm 0.01 in0.3 mm
01:25 AM 45.7°F7.6°C 44.4°F6.9°C 95% 1.0 mph SW1.6 kmh SW 6.0 mph9.7 kmh 29.94 in1013.9 mb 0.01 in0.3 mm 0.00 in0.0 mm 0.01 in0.3 mm
01:10 AM 45.9°F7.7°C 44.3°F6.8°C 94% 3.0 mph SE4.8 kmh SE 3.0 mph4.8 kmh 29.93 in1013.5 mb 0.01 in0.3 mm 0.00 in0.0 mm 0.01 in0.3 mm
01:05 AM 45.9°F7.7°C 44.3°F6.8°C 94% 1.0 mph SE1.6 kmh SE 3.0 mph4.8 kmh 29.93 in1013.5 mb 0.01 in0.3 mm 0.00 in0.0 mm 0.01 in0.3 mm
12:50 AM 46.0°F7.8°C 44.7°F7.1°C 95% 3.0 mph SSE4.8 kmh SSE 7.0 mph11.3 kmh 29.93 in1013.5 mb 0.01 in0.3 mm 0.00 in0.0 mm 0.01 in0.3 mm
12:44 AM 46.1°F7.8°C 44.8°F7.1°C 95% 3.0 mph SSW4.8 kmh SSW 7.0 mph11.3 kmh 29.93 in1013.5 mb 0.01 in0.3 mm 0.04 in1.0 mm 0.01 in0.3 mm
12:30 AM 47.5°F8.6°C 45.3°F7.4°C 92% 2.0 mph S3.2 kmh S 5.0 mph8.0 kmh 29.92 in1013.2 mb 0.00 in0.0 mm 0.00 in0.0 mm 0.00 in0.0 mm
12:24 AM 47.5°F8.6°C 45.3°F7.4°C 92% 3.0 mph S4.8 kmh S 5.0 mph8.0 kmh 29.92 in1013.2 mb 0.00 in0.0 mm 0.00 in0.0 mm 0.00 in0.0 mm
12:10 AM 47.5°F8.6°C 45.6°F7.6°C 93% 4.0 mph SE6.4 kmh SE 4.0 mph6.4 kmh 29.92 in1013.2 mb 0.00 in0.0 mm 0.00 in0.0 mm 0.00 in0.0 mm
12:04 AM 47.5°F8.6°C 45.3°F7.4°C 92% 2.0 mph SSE3.2 kmh SSE 6.0 mph9.7 kmh 29.92 in1013.2 mb 0.00 in0.0 mm 0.00 in0.0 mm 0.00 in0.0 mm